sensor_id;sensor_type;location;lat;lon;timestamp;pressure;altitude;pressure_sealevel;temperature;humidity
69247;BME280;56358;56.328;43.992;2023-04-06T00:00:25;101245.84;;;5.62;60.08
69247;BME280;56358;56.328;43.992;2023-04-06T00:02:26;101267.13;;;5.62;60.38
69247;BME280;56358;56.328;43.992;2023-04-06T00:04:27;101267.78;;;5.67;60.42
69247;BME280;56358;56.328;43.992;2023-04-06T00:06:27;101183.34;;;5.12;60.48
69247;BME280;56358;56.328;43.992;2023-04-06T00:08:28;101259.50;;;5.54;60.54
69247;BME280;56358;56.328;43.992;2023-04-06T00:10:29;101276.25;;;5.56;60.78
69247;BME280;56358;56.328;43.992;2023-04-06T00:12:30;101288.66;;;5.56;60.77
69247;BME280;56358;56.328;43.992;2023-04-06T00:14:31;101272.72;;;5.56;60.50
69247;BME280;56358;56.328;43.992;2023-04-06T00:16:31;101246.16;;;5.35;60.73
69247;BME280;56358;56.328;43.992;2023-04-06T00:18:32;101266.41;;;5.37;60.73
69247;BME280;56358;56.328;43.992;2023-04-06T00:20:33;101280.31;;;5.44;60.74
69247;BME280;56358;56.328;43.992;2023-04-06T00:22:34;101280.25;;;5.46;60.71
69247;BME280;56358;56.328;43.992;2023-04-06T00:24:34;101204.34;;;4.97;60.50
69247;BME280;56358;56.328;43.992;2023-04-06T00:26:35;101288.28;;;5.44;60.70
69247;BME280;56358;56.328;43.992;2023-04-06T00:28:37;101253.84;;;5.20;60.79
69247;BME280;56358;56.328;43.992;2023-04-06T00:30:38;101281.31;;;5.42;60.75
69247;BME280;56358;56.328;43.992;2023-04-06T00:32:38;101286.78;;;5.39;60.91
69247;BME280;56358;56.328;43.992;2023-04-06T00:34:39;101290.44;;;5.36;60.82
69247;BME280;56358;56.328;43.992;2023-04-06T00:36:40;101290.50;;;5.34;60.83
69247;BME280;56358;56.328;43.992;2023-04-06T00:38:41;101284.69;;;5.25;61.03
69247;BME280;56358;56.328;43.992;2023-04-06T00:40:42;101286.16;;;5.32;60.75
69247;BME280;56358;56.328;43.992;2023-04-06T00:42:44;101299.47;;;5.32;60.79
69247;BME280;56358;56.328;43.992;2023-04-06T00:44:45;101220.94;;;4.82;60.89
69247;BME280;56358;56.328;43.992;2023-04-06T00:46:46;101274.91;;;5.04;60.72
69247;BME280;56358;56.328;43.992;2023-04-06T00:48:46;101304.13;;;5.27;61.08
69247;BME280;56358;56.328;43.992;2023-04-06T00:50:47;101291.22;;;5.17;60.85
69247;BME280;56358;56.328;43.992;2023-04-06T00:52:48;101256.75;;;4.94;60.76
69247;BME280;56358;56.328;43.992;2023-04-06T00:54:49;101306.03;;;5.23;61.06
69247;BME280;56358;56.328;43.992;2023-04-06T00:56:51;101316.06;;;5.16;60.86
69247;BME280;56358;56.328;43.992;2023-04-06T00:58:52;101300.91;;;5.18;60.72
69247;BME280;56358;56.328;43.992;2023-04-06T01:00:52;101320.38;;;5.19;60.82
69247;BME280;56358;56.328;43.992;2023-04-06T01:02:53;101240.84;;;4.72;60.93
69247;BME280;56358;56.328;43.992;2023-04-06T01:04:54;101314.38;;;5.14;60.99
69247;BME280;56358;56.328;43.992;2023-04-06T01:06:55;101304.69;;;5.13;60.99
69247;BME280;56358;56.328;43.992;2023-04-06T01:08:56;101319.84;;;5.11;61.05
69247;BME280;56358;56.328;43.992;2023-04-06T01:10:58;101251.28;;;4.76;61.19
69247;BME280;56358;56.328;43.992;2023-04-06T01:13:01;101287.19;;;4.86;61.28
69247;BME280;56358;56.328;43.992;2023-04-06T01:15:01;101318.47;;;5.00;61.44
69247;BME280;56358;56.328;43.992;2023-04-06T01:17:04;101221.59;;;4.44;61.07
69247;BME280;56358;56.328;43.992;2023-04-06T01:19:08;101277.09;;;4.73;61.26
69247;BME280;56358;56.328;43.992;2023-04-06T01:21:09;101312.41;;;4.97;61.24
69247;BME280;56358;56.328;43.992;2023-04-06T01:23:15;101308.09;;;4.94;61.42
69247;BME280;56358;56.328;43.992;2023-04-06T01:25:16;101297.00;;;4.84;61.43
69247;BME280;56358;56.328;43.992;2023-04-06T01:27:16;101243.66;;;4.46;61.58
69247;BME280;56358;56.328;43.992;2023-04-06T01:29:17;101316.47;;;4.85;61.28
69247;BME280;56358;56.328;43.992;2023-04-06T01:31:18;101302.50;;;4.80;61.70
69247;BME280;56358;56.328;43.992;2023-04-06T01:33:18;101320.91;;;4.84;61.71
69247;BME280;56358;56.328;43.992;2023-04-06T01:35:19;101243.09;;;4.38;61.78
69247;BME280;56358;56.328;43.992;2023-04-06T01:37:20;101288.16;;;4.62;61.82
69247;BME280;56358;56.328;43.992;2023-04-06T01:39:20;101319.59;;;4.73;62.03
69247;BME280;56358;56.328;43.992;2023-04-06T01:41:21;101332.94;;;4.71;61.90
69247;BME280;56358;56.328;43.992;2023-04-06T01:43:22;101334.81;;;4.69;62.21
69247;BME280;56358;56.328;43.992;2023-04-06T01:45:23;101242.84;;;4.20;62.25
69247;BME280;56358;56.328;43.992;2023-04-06T01:47:24;101325.25;;;4.65;62.20
69247;BME280;56358;56.328;43.992;2023-04-06T01:49:24;101322.94;;;4.56;62.31
69247;BME280;56358;56.328;43.992;2023-04-06T01:51:25;101328.97;;;4.59;62.07
69247;BME280;56358;56.328;43.992;2023-04-06T01:53:27;101334.28;;;4.59;62.44
69247;BME280;56358;56.328;43.992;2023-04-06T01:55:27;101340.91;;;4.49;62.63
69247;BME280;56358;56.328;43.992;2023-04-06T01:57:28;101335.34;;;4.55;62.52
69247;BME280;56358;56.328;43.992;2023-04-06T01:59:28;101253.34;;;4.01;62.49
69247;BME280;56358;56.328;43.992;2023-04-06T02:01:29;101331.28;;;4.46;62.45
69247;BME280;56358;56.328;43.992;2023-04-06T02:03:30;101354.13;;;4.50;62.75
69247;BME280;56358;56.328;43.992;2023-04-06T02:05:32;101348.81;;;4.50;62.81
69247;BME280;56358;56.328;43.992;2023-04-06T02:07:38;101354.28;;;4.46;62.77
69247;BME280;56358;56.328;43.992;2023-04-06T02:09:38;101362.38;;;4.43;62.93
69247;BME280;56358;56.328;43.992;2023-04-06T02:11:39;101354.41;;;4.43;62.75
69247;BME280;56358;56.328;43.992;2023-04-06T02:13:39;101353.50;;;4.44;62.88
69247;BME280;56358;56.328;43.992;2023-04-06T02:15:40;101349.38;;;4.35;62.98
69247;BME280;56358;56.328;43.992;2023-04-06T02:17:42;101209.16;;;3.53;62.82
69247;BME280;56358;56.328;43.992;2023-04-06T02:19:42;101358.97;;;4.39;63.20
69247;BME280;56358;56.328;43.992;2023-04-06T02:21:43;101365.31;;;4.35;63.08
69247;BME280;56358;56.328;43.992;2023-04-06T02:23:44;101369.69;;;4.36;63.16
69247;BME280;56358;56.328;43.992;2023-04-06T02:25:44;101336.81;;;4.16;63.40
69247;BME280;56358;56.328;43.992;2023-04-06T02:27:45;101368.16;;;4.30;63.53
69247;BME280;56358;56.328;43.992;2023-04-06T02:29:46;101335.38;;;4.08;63.69
69247;BME280;56358;56.328;43.992;2023-04-06T02:31:47;101370.09;;;4.25;63.77
69247;BME280;56358;56.328;43.992;2023-04-06T02:33:47;101369.06;;;4.29;63.67
69247;BME280;56358;56.328;43.992;2023-04-06T02:35:48;101377.88;;;4.30;63.74
69247;BME280;56358;56.328;43.992;2023-04-06T02:37:48;101376.81;;;4.35;63.46
69247;BME280;56358;56.328;43.992;2023-04-06T02:39:50;101375.78;;;4.40;63.46
69247;BME280;56358;56.328;43.992;2023-04-06T02:41:51;101379.97;;;4.45;63.14
69247;BME280;56358;56.328;43.992;2023-04-06T02:43:51;101383.56;;;4.44;63.38
69247;BME280;56358;56.328;43.992;2023-04-06T02:45:52;101380.69;;;4.50;63.24
69247;BME280;56358;56.328;43.992;2023-04-06T02:47:52;101314.91;;;4.11;63.03
69247;BME280;56358;56.328;43.992;2023-04-06T02:49:53;101386.50;;;4.60;62.85
69247;BME280;56358;56.328;43.992;2023-04-06T02:51:54;101389.09;;;4.62;62.94
69247;BME280;56358;56.328;43.992;2023-04-06T02:53:54;101393.59;;;4.60;62.86
69247;BME280;56358;56.328;43.992;2023-04-06T02:55:55;101312.25;;;4.11;62.56
69247;BME280;56358;56.328;43.992;2023-04-06T02:57:56;101358.81;;;4.44;62.57
69247;BME280;56358;56.328;43.992;2023-04-06T02:59:56;101401.38;;;4.64;62.49
69247;BME280;56358;56.328;43.992;2023-04-06T03:01:57;101384.13;;;4.52;62.60
69247;BME280;56358;56.328;43.992;2023-04-06T03:03:58;101405.66;;;4.68;62.63
69247;BME280;56358;56.328;43.992;2023-04-06T03:05:58;101400.34;;;4.68;62.43
69247;BME280;56358;56.328;43.992;2023-04-06T03:08:00;101396.69;;;4.71;62.39
69247;BME280;56358;56.328;43.992;2023-04-06T03:10:00;101419.69;;;4.72;62.39
69247;BME280;56358;56.328;43.992;2023-04-06T03:12:01;101326.94;;;4.20;62.30
69247;BME280;56358;56.328;43.992;2023-04-06T03:14:02;101398.44;;;4.72;62.10
69247;BME280;56358;56.328;43.992;2023-04-06T03:16:03;101410.88;;;4.72;62.27
69247;BME280;56358;56.328;43.992;2023-04-06T03:18:04;101373.56;;;4.51;62.36
69247;BME280;56358;56.328;43.992;2023-04-06T03:20:05;101410.25;;;4.63;62.84
69247;BME280;56358;56.328;43.992;2023-04-06T03:22:06;101408.50;;;4.64;62.63
69247;BME280;56358;56.328;43.992;2023-04-06T03:24:07;101409.47;;;4.61;62.95
69247;BME280;56358;56.328;43.992;2023-04-06T03:26:07;101408.66;;;4.59;62.82
69247;BME280;56358;56.328;43.992;2023-04-06T03:28:08;101414.09;;;4.56;63.07
69247;BME280;56358;56.328;43.992;2023-04-06T03:30:09;101409.69;;;4.55;63.07
69247;BME280;56358;56.328;43.992;2023-04-06T03:32:10;101417.91;;;4.49;63.21
69247;BME280;56358;56.328;43.992;2023-04-06T03:34:11;101412.59;;;4.49;63.23
69247;BME280;56358;56.328;43.992;2023-04-06T03:36:11;101425.13;;;4.45;63.19
69247;BME280;56358;56.328;43.992;2023-04-06T03:38:12;101413.66;;;4.45;63.62
69247;BME280;56358;56.328;43.992;2023-04-06T03:40:12;101423.38;;;4.44;63.40
69247;BME280;56358;56.328;43.992;2023-04-06T03:42:13;101416.25;;;4.46;63.37
69247;BME280;56358;56.328;43.992;2023-04-06T03:44:15;101391.16;;;4.30;63.34
69247;BME280;56358;56.328;43.992;2023-04-06T03:46:17;101414.38;;;4.48;63.25
69247;BME280;56358;56.328;43.992;2023-04-06T03:48:17;101415.13;;;4.52;62.78
69247;BME280;56358;56.328;43.992;2023-04-06T03:50:18;101395.16;;;4.42;62.63
69247;BME280;56358;56.328;43.992;2023-04-06T03:52:18;101342.28;;;4.12;62.49
69247;BME280;56358;56.328;43.992;2023-04-06T03:54:19;101403.75;;;4.48;62.26
69247;BME280;56358;56.328;43.992;2023-04-06T03:56:20;101417.44;;;4.61;62.18
69247;BME280;56358;56.328;43.992;2023-04-06T03:58:20;101396.94;;;4.41;61.96
69247;BME280;56358;56.328;43.992;2023-04-06T04:00:21;101348.19;;;4.20;61.89
69247;BME280;56358;56.328;43.992;2023-04-06T04:02:22;101434.81;;;4.70;61.70
69247;BME280;56358;56.328;43.992;2023-04-06T04:04:22;101427.72;;;4.70;61.58
69247;BME280;56358;56.328;43.992;2023-04-06T04:06:23;101439.19;;;4.71;61.32
69247;BME280;56358;56.328;43.992;2023-04-06T04:08:24;101432.78;;;4.77;61.27
69247;BME280;56358;56.328;43.992;2023-04-06T04:10:25;101445.00;;;4.82;61.05
69247;BME280;56358;56.328;43.992;2023-04-06T04:12:26;101414.50;;;4.69;60.71
69247;BME280;56358;56.328;43.992;2023-04-06T04:14:26;101440.34;;;4.87;60.41
69247;BME280;56358;56.328;43.992;2023-04-06T04:16:27;101380.56;;;4.53;59.98
69247;BME280;56358;56.328;43.992;2023-04-06T04:18:28;101448.94;;;4.94;59.72
69247;BME280;56358;56.328;43.992;2023-04-06T04:20:28;101364.81;;;4.49;59.76
69247;BME280;56358;56.328;43.992;2023-04-06T04:22:29;101412.50;;;4.74;59.61
69247;BME280;56358;56.328;43.992;2023-04-06T04:24:29;101446.88;;;5.02;59.55
69247;BME280;56358;56.328;43.992;2023-04-06T04:26:30;101425.09;;;4.93;59.17
69247;BME280;56358;56.328;43.992;2023-04-06T04:28:31;101443.94;;;5.09;59.08
69247;BME280;56358;56.328;43.992;2023-04-06T04:30:31;101359.06;;;4.60;58.85
69247;BME280;56358;56.328;43.992;2023-04-06T04:32:32;101364.03;;;4.69;58.46
69247;BME280;56358;56.328;43.992;2023-04-06T04:34:33;101413.94;;;5.07;58.46
69247;BME280;56358;56.328;43.992;2023-04-06T04:36:33;101440.50;;;5.29;58.27
69247;BME280;56358;56.328;43.992;2023-04-06T04:38:34;101435.00;;;5.33;58.13
69247;BME280;56358;56.328;43.992;2023-04-06T04:40:35;101438.28;;;5.40;57.71
69247;BME280;56358;56.328;43.992;2023-04-06T04:42:36;101419.78;;;5.37;57.58
69247;BME280;56358;56.328;43.992;2023-04-06T04:44:37;101422.19;;;5.43;57.29
69247;BME280;56358;56.328;43.992;2023-04-06T04:46:37;101429.25;;;5.65;57.22
69247;BME280;56358;56.328;43.992;2023-04-06T04:48:38;101435.19;;;5.71;56.77
69247;BME280;56358;56.328;43.992;2023-04-06T04:50:38;101436.94;;;5.73;56.82
69247;BME280;56358;56.328;43.992;2023-04-06T04:52:39;101412.25;;;5.69;56.49
69247;BME280;56358;56.328;43.992;2023-04-06T04:54:40;101454.72;;;5.93;56.20
69247;BME280;56358;56.328;43.992;2023-04-06T04:56:41;101444.56;;;6.02;55.84
69247;BME280;56358;56.328;43.992;2023-04-06T04:58:42;101371.66;;;5.64;56.04
69247;BME280;56358;56.328;43.992;2023-04-06T05:00:43;101444.75;;;6.18;55.85
69247;BME280;56358;56.328;43.992;2023-04-06T05:02:43;101449.75;;;6.26;55.50
69247;BME280;56358;56.328;43.992;2023-04-06T05:04:44;101435.00;;;6.19;54.80
69247;BME280;56358;56.328;43.992;2023-04-06T05:06:45;101458.25;;;6.34;54.76
69247;BME280;56358;56.328;43.992;2023-04-06T05:08:46;101403.63;;;6.05;54.26
69247;BME280;56358;56.328;43.992;2023-04-06T05:10:47;101458.66;;;6.46;54.25
69247;BME280;56358;56.328;43.992;2023-04-06T05:12:48;101455.50;;;6.57;53.97
69247;BME280;56358;56.328;43.992;2023-04-06T05:14:49;101397.75;;;6.17;53.69
69247;BME280;56358;56.328;43.992;2023-04-06T05:16:50;101450.88;;;6.60;53.65
69247;BME280;56358;56.328;43.992;2023-04-06T05:18:50;101424.53;;;6.54;53.45
69247;BME280;56358;56.328;43.992;2023-04-06T05:20:51;101439.94;;;6.66;53.20
69247;BME280;56358;56.328;43.992;2023-04-06T05:22:52;101465.59;;;6.88;52.88
69247;BME280;56358;56.328;43.992;2023-04-06T05:24:52;101467.91;;;6.96;52.91
69247;BME280;56358;56.328;43.992;2023-04-06T05:26:53;101469.25;;;7.04;52.63
69247;BME280;56358;56.328;43.992;2023-04-06T05:28:54;101467.13;;;7.13;52.57
69247;BME280;56358;56.328;43.992;2023-04-06T05:30:55;101473.06;;;7.18;52.03
69247;BME280;56358;56.328;43.992;2023-04-06T05:32:57;101472.72;;;7.26;51.90
69247;BME280;56358;56.328;43.992;2023-04-06T05:34:58;101457.50;;;7.28;51.89
69247;BME280;56358;56.328;43.992;2023-04-06T05:36:59;101437.41;;;7.20;51.42
69247;BME280;56358;56.328;43.992;2023-04-06T05:39:00;101455.06;;;7.23;51.55
69247;BME280;56358;56.328;43.992;2023-04-06T05:41:00;101471.81;;;7.44;51.38
69247;BME280;56358;56.328;43.992;2023-04-06T05:43:01;101458.00;;;7.36;50.86
69247;BME280;56358;56.328;43.992;2023-04-06T05:45:03;101455.81;;;7.44;50.67
69247;BME280;56358;56.328;43.992;2023-04-06T05:47:04;101403.69;;;7.19;50.74
69247;BME280;56358;56.328;43.992;2023-04-06T05:49:04;101461.03;;;7.65;50.31
69247;BME280;56358;56.328;43.992;2023-04-06T05:51:05;101474.72;;;7.76;50.61
69247;BME280;56358;56.328;43.992;2023-04-06T05:53:09;101458.13;;;7.69;50.34
69247;BME280;56358;56.328;43.992;2023-04-06T05:55:10;101470.94;;;7.80;50.10
69247;BME280;56358;56.328;43.992;2023-04-06T05:57:11;101468.66;;;7.90;49.94
69247;BME280;56358;56.328;43.992;2023-04-06T05:59:12;101392.25;;;7.52;50.19
69247;BME280;56358;56.328;43.992;2023-04-06T06:01:12;101468.28;;;7.98;49.88
69247;BME280;56358;56.328;43.992;2023-04-06T06:03:13;101458.69;;;7.94;49.47
69247;BME280;56358;56.328;43.992;2023-04-06T06:05:15;101474.63;;;8.13;49.46
69247;BME280;56358;56.328;43.992;2023-04-06T06:07:16;101479.75;;;8.17;49.15
69247;BME280;56358;56.328;43.992;2023-04-06T06:09:17;101482.16;;;8.22;49.12
69247;BME280;56358;56.328;43.992;2023-04-06T06:11:17;101425.53;;;7.98;48.71
69247;BME280;56358;56.328;43.992;2023-04-06T06:13:18;101495.59;;;8.38;48.39
69247;BME280;56358;56.328;43.992;2023-04-06T06:15:18;101455.06;;;8.30;48.64
69247;BME280;56358;56.328;43.992;2023-04-06T06:17:19;101437.47;;;8.26;48.29
69247;BME280;56358;56.328;43.992;2023-04-06T06:19:20;101454.97;;;8.49;47.91
69247;BME280;56358;56.328;43.992;2023-04-06T06:21:21;101490.28;;;8.71;47.55
69247;BME280;56358;56.328;43.992;2023-04-06T06:23:21;101483.72;;;8.77;47.73
69247;BME280;56358;56.328;43.992;2023-04-06T06:25:22;101499.03;;;8.91;47.69
69247;BME280;56358;56.328;43.992;2023-04-06T06:27:23;101458.81;;;8.77;47.19
69247;BME280;56358;56.328;43.992;2023-04-06T06:29:23;101473.75;;;8.81;47.73
69247;BME280;56358;56.328;43.992;2023-04-06T06:31:24;101481.94;;;8.78;47.63
69247;BME280;56358;56.328;43.992;2023-04-06T06:33:25;101451.06;;;8.72;47.29
69247;BME280;56358;56.328;43.992;2023-04-06T06:35:26;101428.19;;;8.66;47.18
69247;BME280;56358;56.328;43.992;2023-04-06T06:37:27;101488.00;;;9.13;46.94
69247;BME280;56358;56.328;43.992;2023-04-06T06:39:28;101473.69;;;9.14;46.67
69247;BME280;56358;56.328;43.992;2023-04-06T06:41:28;101414.84;;;8.82;46.55
69247;BME280;56358;56.328;43.992;2023-04-06T06:43:29;101490.16;;;9.22;46.75
69247;BME280;56358;56.328;43.992;2023-04-06T06:45:30;101492.84;;;9.22;46.80
69247;BME280;56358;56.328;43.992;2023-04-06T06:47:31;101408.28;;;8.72;46.61
69247;BME280;56358;56.328;43.992;2023-04-06T06:49:31;101417.19;;;8.88;46.47
69247;BME280;56358;56.328;43.992;2023-04-06T06:51:32;101480.06;;;9.28;46.36
69247;BME280;56358;56.328;43.992;2023-04-06T06:53:32;101434.78;;;9.09;45.95
69247;BME280;56358;56.328;43.992;2023-04-06T06:55:33;101483.78;;;9.41;45.51
69247;BME280;56358;56.328;43.992;2023-04-06T06:57:34;101489.03;;;9.43;45.73
69247;BME280;56358;56.328;43.992;2023-04-06T06:59:34;101484.56;;;9.59;45.64
69247;BME280;56358;56.328;43.992;2023-04-06T07:01:36;101485.72;;;9.69;45.37
69247;BME280;56358;56.328;43.992;2023-04-06T07:03:36;101472.63;;;9.65;45.40
69247;BME280;56358;56.328;43.992;2023-04-06T07:05:37;101480.78;;;9.78;45.13
69247;BME280;56358;56.328;43.992;2023-04-06T07:07:38;101490.28;;;9.83;45.11
69247;BME280;56358;56.328;43.992;2023-04-06T07:09:38;101477.47;;;9.88;44.75
69247;BME280;56358;56.328;43.992;2023-04-06T07:11:39;101469.38;;;9.90;44.06
69247;BME280;56358;56.328;43.992;2023-04-06T07:13:40;101466.41;;;9.95;43.86
69247;BME280;56358;56.328;43.992;2023-04-06T07:15:40;101476.47;;;10.05;44.23
69247;BME280;56358;56.328;43.992;2023-04-06T07:17:41;101480.44;;;10.14;44.00
69247;BME280;56358;56.328;43.992;2023-04-06T07:19:42;101475.91;;;10.15;43.46
69247;BME280;56358;56.328;43.992;2023-04-06T07:21:42;101483.50;;;10.22;42.66
69247;BME280;56358;56.328;43.992;2023-04-06T07:23:43;101481.41;;;10.28;42.65
69247;BME280;56358;56.328;43.992;2023-04-06T07:25:44;101482.00;;;10.33;42.47
69247;BME280;56358;56.328;43.992;2023-04-06T07:27:45;101469.44;;;10.33;42.40
69247;BME280;56358;56.328;43.992;2023-04-06T07:29:45;101471.34;;;10.31;42.85
69247;BME280;56358;56.328;43.992;2023-04-06T07:31:46;101464.28;;;10.30;42.68
69247;BME280;56358;56.328;43.992;2023-04-06T07:33:47;101470.41;;;10.32;42.32
69247;BME280;56358;56.328;43.992;2023-04-06T07:35:48;101414.75;;;9.93;42.02
69247;BME280;56358;56.328;43.992;2023-04-06T07:37:48;101473.28;;;10.29;41.34
69247;BME280;56358;56.328;43.992;2023-04-06T07:39:49;101484.41;;;10.37;41.37
69247;BME280;56358;56.328;43.992;2023-04-06T07:41:49;101399.63;;;9.92;40.94
69247;BME280;56358;56.328;43.992;2023-04-06T07:43:50;101481.44;;;10.42;41.04
69247;BME280;56358;56.328;43.992;2023-04-06T07:45:51;101421.59;;;10.13;40.73
69247;BME280;56358;56.328;43.992;2023-04-06T07:47:51;101479.19;;;10.50;39.52
69247;BME280;56358;56.328;43.992;2023-04-06T07:49:54;101474.97;;;10.46;39.13
69247;BME280;56358;56.328;43.992;2023-04-06T07:51:56;101471.88;;;10.38;38.09
69247;BME280;56358;56.328;43.992;2023-04-06T07:53:56;101425.09;;;10.13;38.19
69247;BME280;56358;56.328;43.992;2023-04-06T07:56:00;101461.47;;;10.48;37.82
69247;BME280;56358;56.328;43.992;2023-04-06T07:58:01;101406.75;;;10.21;38.13
69247;BME280;56358;56.328;43.992;2023-04-06T08:00:02;101474.47;;;10.54;37.60
69247;BME280;56358;56.328;43.992;2023-04-06T08:02:04;101479.25;;;10.63;38.34
69247;BME280;56358;56.328;43.992;2023-04-06T08:04:05;101480.25;;;10.62;38.02
69247;BME280;56358;56.328;43.992;2023-04-06T08:06:06;101482.72;;;10.65;37.43
69247;BME280;56358;56.328;43.992;2023-04-06T08:08:06;101484.44;;;10.66;37.34
69247;BME280;56358;56.328;43.992;2023-04-06T08:10:07;101481.56;;;10.69;37.04
69247;BME280;56358;56.328;43.992;2023-04-06T08:12:08;101459.63;;;10.63;36.87
69247;BME280;56358;56.328;43.992;2023-04-06T08:14:09;101478.22;;;10.80;36.29
69247;BME280;56358;56.328;43.992;2023-04-06T08:16:10;101480.22;;;10.91;35.86
69247;BME280;56358;56.328;43.992;2023-04-06T08:18:10;101482.41;;;10.99;36.05
69247;BME280;56358;56.328;43.992;2023-04-06T08:20:11;101492.56;;;11.08;35.98
69247;BME280;56358;56.328;43.992;2023-04-06T08:22:12;101479.91;;;11.10;35.09
69247;BME280;56358;56.328;43.992;2023-04-06T08:24:14;101478.56;;;11.03;34.60
69247;BME280;56358;56.328;43.992;2023-04-06T08:26:15;101479.03;;;11.10;34.98
69247;BME280;56358;56.328;43.992;2023-04-06T08:28:15;101473.22;;;11.03;34.57
69247;BME280;56358;56.328;43.992;2023-04-06T08:30:16;101478.91;;;11.26;34.26
69247;BME280;56358;56.328;43.992;2023-04-06T08:32:19;101472.75;;;11.38;33.45
69247;BME280;56358;56.328;43.992;2023-04-06T08:34:20;101478.75;;;11.56;32.57
69247;BME280;56358;56.328;43.992;2023-04-06T08:36:21;101465.19;;;11.57;32.86
69247;BME280;56358;56.328;43.992;2023-04-06T08:38:23;101439.81;;;11.49;32.44
69247;BME280;56358;56.328;43.992;2023-04-06T08:40:24;101468.22;;;11.66;31.45
69247;BME280;56358;56.328;43.992;2023-04-06T08:42:25;101426.69;;;11.44;31.44
69247;BME280;56358;56.328;43.992;2023-04-06T08:44:26;101484.94;;;11.84;30.37
69247;BME280;56358;56.328;43.992;2023-04-06T08:46:29;101476.63;;;11.74;30.34
69247;BME280;56358;56.328;43.992;2023-04-06T08:48:30;101477.13;;;11.94;29.99
69247;BME280;56358;56.328;43.992;2023-04-06T08:50:33;101414.41;;;11.67;30.27
69247;BME280;56358;56.328;43.992;2023-04-06T08:52:33;101482.25;;;12.11;30.19
69247;BME280;56358;56.328;43.992;2023-04-06T08:54:34;101479.88;;;12.19;30.20
69247;BME280;56358;56.328;43.992;2023-04-06T08:56:37;101467.28;;;12.20;29.80
69247;BME280;56358;56.328;43.992;2023-04-06T08:58:39;101478.19;;;12.31;29.16
69247;BME280;56358;56.328;43.992;2023-04-06T09:00:41;101465.47;;;12.33;28.49
69247;BME280;56358;56.328;43.992;2023-04-06T09:02:43;101473.53;;;12.72;27.85
69247;BME280;56358;56.328;43.992;2023-04-06T09:04:47;101472.72;;;13.08;28.00
69247;BME280;56358;56.328;43.992;2023-04-06T09:06:48;101423.13;;;13.37;27.68
69247;BME280;56358;56.328;43.992;2023-04-06T09:08:50;101424.03;;;13.96;26.69
69247;BME280;56358;56.328;43.992;2023-04-06T09:10:51;101475.69;;;14.72;25.37
69247;BME280;56358;56.328;43.992;2023-04-06T09:13:03;101415.19;;;14.74;24.32
69247;BME280;56358;56.328;43.992;2023-04-06T09:15:04;101403.78;;;14.82;24.51
69247;BME280;56358;56.328;43.992;2023-04-06T09:17:06;101466.75;;;15.82;24.47
69247;BME280;56358;56.328;43.992;2023-04-06T09:19:07;101461.66;;;16.00;23.50
69247;BME280;56358;56.328;43.992;2023-04-06T09:21:08;101470.16;;;16.37;23.16
69247;BME280;56358;56.328;43.992;2023-04-06T09:23:18;101468.69;;;16.85;22.12
69247;BME280;56358;56.328;43.992;2023-04-06T09:25:21;101477.94;;;17.23;21.51
69247;BME280;56358;56.328;43.992;2023-04-06T09:27:32;101467.03;;;17.64;20.86
69247;BME280;56358;56.328;43.992;2023-04-06T09:29:33;101465.03;;;18.05;20.68
69247;BME280;56358;56.328;43.992;2023-04-06T09:31:36;101447.63;;;17.98;20.94
69247;BME280;56358;56.328;43.992;2023-04-06T09:33:38;101458.16;;;18.21;20.41
69247;BME280;56358;56.328;43.992;2023-04-06T09:35:49;101395.34;;;17.86;19.75
69247;BME280;56358;56.328;43.992;2023-04-06T09:37:51;101406.59;;;18.21;20.03
69247;BME280;56358;56.328;43.992;2023-04-06T09:40:04;101445.41;;;18.41;19.93
69247;BME280;56358;56.328;43.992;2023-04-06T09:42:05;101462.78;;;18.58;19.57
69247;BME280;56358;56.328;43.992;2023-04-06T09:44:09;101460.97;;;18.76;18.88
69247;BME280;56358;56.328;43.992;2023-04-06T09:46:10;101446.97;;;18.81;18.63
69247;BME280;56358;56.328;43.992;2023-04-06T09:48:11;101460.09;;;18.96;17.33
69247;BME280;56358;56.328;43.992;2023-04-06T09:50:14;101452.00;;;19.32;16.37
69247;BME280;56358;56.328;43.992;2023-04-06T09:52:15;101455.13;;;19.55;16.84
69247;BME280;56358;56.328;43.992;2023-04-06T09:54:22;101451.66;;;19.81;17.06
69247;BME280;56358;56.328;43.992;2023-04-06T09:56:24;101456.19;;;20.16;17.57
69247;BME280;56358;56.328;43.992;2023-04-06T09:58:33;101452.94;;;20.39;17.16
69247;BME280;56358;56.328;43.992;2023-04-06T10:00:47;101397.84;;;20.53;16.91
69247;BME280;56358;56.328;43.992;2023-04-06T10:05:09;101443.75;;;21.09;16.40
69247;BME280;56358;56.328;43.992;2023-04-06T10:07:11;101445.84;;;21.23;16.13
69247;BME280;56358;56.328;43.992;2023-04-06T10:09:12;101431.22;;;21.24;15.97
69247;BME280;56358;56.328;43.992;2023-04-06T10:11:14;101450.63;;;21.21;15.55
69247;BME280;56358;56.328;43.992;2023-04-06T10:13:16;101441.59;;;21.29;15.54
69247;BME280;56358;56.328;43.992;2023-04-06T10:15:18;101430.16;;;21.25;15.66
69247;BME280;56358;56.328;43.992;2023-04-06T10:17:18;101443.84;;;21.42;15.26
69247;BME280;56358;56.328;43.992;2023-04-06T10:19:39;101444.75;;;21.59;14.90
69247;BME280;56358;56.328;43.992;2023-04-06T10:21:44;101438.09;;;21.70;15.02
69247;BME280;56358;56.328;43.992;2023-04-06T10:23:51;101444.59;;;21.69;14.89
69247;BME280;56358;56.328;43.992;2023-04-06T10:25:57;101434.88;;;21.91;14.57
69247;BME280;56358;56.328;43.992;2023-04-06T10:28:11;101424.44;;;22.19;14.21
69247;BME280;56358;56.328;43.992;2023-04-06T10:30:15;101430.75;;;22.20;14.29
69247;BME280;56358;56.328;43.992;2023-04-06T10:32:17;101382.50;;;21.87;14.34
69247;BME280;56358;56.328;43.992;2023-04-06T10:34:18;101441.34;;;22.15;14.35